Time,TemperatureF,DewpointF,PressureIn,WindDirection,WindDirectionDegrees,WindSpeedMPH,WindSpeedGustMPH,Humidity,HourlyPrecipIn,Conditions,Clouds,dailyrainin,SoftwareType,DateUTC
2013-06-13 00:01:00,67.6,65.8,29.58,SE,132,2.0,5.0,94,0.07,,,0.00,WeatherCatV1.15B25,2013-06-13 04:01:00,
2013-06-13 00:06:00,67.5,65.7,29.55,ESE,102,8.0,8.0,94,2.81,,,0.08,WeatherCatV1.15B25,2013-06-13 04:06:00,
2013-06-13 00:11:00,67.4,65.6,29.55,WSW,239,3.0,6.0,94,0.59,,,0.19,WeatherCatV1.15B25,2013-06-13 04:11:00,
2013-06-13 00:16:00,67.3,65.5,29.58,West,279,12.0,17.0,94,2.64,,,0.24,WeatherCatV1.15B25,2013-06-13 04:16:00,
2013-06-13 00:21:00,67.3,65.5,29.58,WNW,286,7.0,14.0,94,0.31,,,0.40,WeatherCatV1.15B25,2013-06-13 04:21:00,
2013-06-13 00:24:00,67.2,65.4,29.57,NNW,328,2.0,5.0,94,0.40,,,0.44,WeatherCatV1.15B25,2013-06-13 04:24:00,
2013-06-13 00:28:00,67.2,65.4,29.57,NW,325,0.0,2.0,94,0.18,,,0.45,WeatherCatV1.15B25,2013-06-13 04:28:00,
2013-06-13 00:37:00,67.2,65.4,29.56,ENE,73,2.0,7.0,94,0.06,,,0.46,WeatherCatV1.15B25,2013-06-13 04:37:00,
2013-06-13 00:50:00,67.0,65.2,29.55,NE,46,1.0,1.0,94,0.07,,,0.48,WeatherCatV1.15B25,2013-06-13 04:50:00,
2013-06-13 01:05:00,66.8,65.3,29.55,SE,128,1.0,2.0,95,0.22,,,0.53,WeatherCatV1.15B25,2013-06-13 05:05:00,
2013-06-13 01:10:00,66.7,65.2,29.54,East,90,3.0,5.0,95,0.20,,,0.55,WeatherCatV1.15B25,2013-06-13 05:10:00,
2013-06-13 01:15:00,66.7,65.2,29.54,East,79,2.0,2.0,95,0.23,,,0.57,WeatherCatV1.15B25,2013-06-13 05:15:00,
2013-06-13 01:20:00,66.6,65.1,29.53,NE,56,3.0,5.0,95,0.20,,,0.59,WeatherCatV1.15B25,2013-06-13 05:20:00,
2013-06-13 01:25:00,66.5,65.0,29.53,East,82,1.0,2.0,95,0.17,,,0.60,WeatherCatV1.15B25,2013-06-13 05:25:00,
2013-06-13 01:30:00,66.5,65.0,29.53,SE,130,5.0,5.0,95,0.24,,,0.62,WeatherCatV1.15B25,2013-06-13 05:30:00,
2013-06-13 01:35:00,66.5,65.0,29.52,East,88,6.0,11.0,95,0.21,,,0.64,WeatherCatV1.15B25,2013-06-13 05:35:00,
2013-06-13 01:40:00,66.5,65.0,29.52,West,276,2.0,4.0,95,0.21,,,0.65,WeatherCatV1.15B25,2013-06-13 05:40:00,
2013-06-13 01:45:00,66.5,65.0,29.52,ESE,105,3.0,6.0,95,0.14,,,0.67,WeatherCatV1.15B25,2013-06-13 05:45:00,
2013-06-13 01:50:00,66.3,64.8,29.50,East,87,3.0,6.0,95,0.18,,,0.68,WeatherCatV1.15B25,2013-06-13 05:50:00,
2013-06-13 01:55:00,66.1,64.6,29.49,East,86,5.0,7.0,95,0.08,,,0.68,WeatherCatV1.15B25,2013-06-13 05:55:00,
2013-06-13 02:00:00,66.1,64.6,29.49,ESE,111,7.0,7.0,95,0.06,,,0.69,WeatherCatV1.15B25,2013-06-13 06:00:00,
2013-06-13 02:05:00,66.0,64.5,29.48,ESE,103,3.0,5.0,95,0.08,,,0.69,WeatherCatV1.15B25,2013-06-13 06:05:00,
2013-06-13 02:10:00,65.8,64.3,29.46,East,96,8.0,10.0,95,0.08,,,0.70,WeatherCatV1.15B25,2013-06-13 06:10:00,
2013-06-13 02:15:00,65.6,64.1,29.45,East,94,5.0,14.0,95,0.09,,,0.71,WeatherCatV1.15B25,2013-06-13 06:15:00,
2013-06-13 02:20:00,65.5,64.0,29.43,ENE,62,5.0,11.0,95,0.07,,,0.71,WeatherCatV1.15B25,2013-06-13 06:20:00,
2013-06-13 02:25:00,65.3,63.8,29.45,ENE,57,0.0,3.0,95,0.05,,,0.71,WeatherCatV1.15B25,2013-06-13 06:25:00,
2013-06-13 02:30:00,65.2,63.7,29.45,SE,134,2.0,10.0,95,0.00,,,0.71,WeatherCatV1.15B25,2013-06-13 06:30:00,
2013-06-13 02:35:00,65.1,63.6,29.47,West,277,2.0,4.0,95,0.00,,,0.71,WeatherCatV1.15B25,2013-06-13 06:35:00,
2013-06-13 02:40:00,65.0,63.5,29.48,WNW,298,3.0,5.0,95,0.00,,,0.72,WeatherCatV1.15B25,2013-06-13 06:40:00,
2013-06-13 02:45:00,65.0,63.5,29.48,East,84,8.0,9.0,95,0.00,,,0.72,WeatherCatV1.15B25,2013-06-13 06:45:00,
2013-06-13 02:50:00,65.0,63.2,29.47,ESE,111,5.0,8.0,94,0.11,,,0.73,WeatherCatV1.15B25,2013-06-13 06:50:00,
2013-06-13 02:55:00,64.9,63.1,29.47,East,80,3.0,8.0,94,0.24,,,0.75,WeatherCatV1.15B25,2013-06-13 06:55:00,
2013-06-13 03:00:00,64.9,63.4,29.47,ENE,64,2.0,4.0,95,0.22,,,0.77,WeatherCatV1.15B25,2013-06-13 07:00:00,
2013-06-13 03:05:00,64.8,63.3,29.47,NE,36,0.0,0.0,95,0.22,,,0.78,WeatherCatV1.15B25,2013-06-13 07:05:00,
2013-06-13 03:10:00,64.7,63.2,29.48,NE,36,0.0,0.0,95,0.50,,,0.82,WeatherCatV1.15B25,2013-06-13 07:10:00,
2013-06-13 03:15:00,64.7,63.2,29.48,NE,40,3.0,4.0,95,1.56,,,0.94,WeatherCatV1.15B25,2013-06-13 07:15:00,
2013-06-13 03:20:00,64.6,63.1,29.47,ENE,61,3.0,4.0,95,0.58,,,1.04,WeatherCatV1.15B25,2013-06-13 07:20:00,
2013-06-13 03:25:00,64.5,63.0,29.48,NE,45,2.0,5.0,95,0.48,,,1.08,WeatherCatV1.15B25,2013-06-13 07:25:00,
2013-06-13 03:30:00,64.4,62.9,29.47,NNE,33,7.0,8.0,95,0.26,,,1.11,WeatherCatV1.15B25,2013-06-13 07:30:00,
2013-06-13 03:35:00,64.2,62.7,29.47,ENE,61,9.0,12.0,95,0.32,,,1.13,WeatherCatV1.15B25,2013-06-13 07:35:00,
2013-06-13 03:41:00,64.1,62.6,29.47,NE,46,7.0,8.0,95,0.34,,,1.16,WeatherCatV1.15B25,2013-06-13 07:41:00,
2013-06-13 03:46:00,64.0,62.5,29.46,ENE,69,4.0,9.0,95,0.16,,,1.17,WeatherCatV1.15B25,2013-06-13 07:46:00,
2013-06-13 03:51:00,63.9,62.4,29.47,NNE,16,5.0,7.0,95,0.47,,,1.22,WeatherCatV1.15B25,2013-06-13 07:51:00,
2013-06-13 03:56:00,63.8,62.3,29.47,North,9,4.0,12.0,95,0.13,,,1.23,WeatherCatV1.15B25,2013-06-13 07:56:00,
2013-06-13 04:01:00,63.8,62.3,29.48,North,11,4.0,7.0,95,0.09,,,1.23,WeatherCatV1.15B25,2013-06-13 08:01:00,
2013-06-13 04:06:00,63.8,62.3,29.48,NNE,26,7.0,8.0,95,0.05,,,1.23,WeatherCatV1.15B25,2013-06-13 08:06:00,
2013-06-13 04:11:00,63.9,62.4,29.47,NNE,28,9.0,11.0,95,0.04,,,1.23,WeatherCatV1.15B25,2013-06-13 08:11:00,
2013-06-13 04:16:00,63.8,62.3,29.48,NNE,28,11.0,12.0,95,0.00,,,1.23,WeatherCatV1.15B25,2013-06-13 08:16:00,
2013-06-13 04:21:00,63.9,62.4,29.47,NE,44,7.0,14.0,95,0.00,,,1.23,WeatherCatV1.15B25,2013-06-13 08:21:00,
2013-06-13 04:26:00,64.0,62.5,29.47,NE,44,3.0,8.0,95,0.00,,,1.23,WeatherCatV1.15B25,2013-06-13 08:26:00,
2013-06-13 04:31:00,63.9,62.4,29.48,NNE,15,4.0,9.0,95,0.00,,,1.23,WeatherCatV1.15B25,2013-06-13 08:31:00,
2013-06-13 04:36:00,63.9,62.4,29.48,NNE,29,6.0,8.0,95,0.00,,,1.23,WeatherCatV1.15B25,2013-06-13 08:36:00,
2013-06-13 04:41:00,63.8,62.3,29.49,NNE,28,5.0,8.0,95,0.00,,,1.23,WeatherCatV1.15B25,2013-06-13 08:41:00,
2013-06-13 04:46:00,63.8,62.3,29.48,NE,34,9.0,11.0,95,0.00,,,1.23,WeatherCatV1.15B25,2013-06-13 08:46:00,
2013-06-13 04:51:00,63.7,62.2,29.48,NNE,14,8.0,9.0,95,0.00,,,1.23,WeatherCatV1.15B25,2013-06-13 08:51:00,
2013-06-13 04:56:00,63.7,62.2,29.48,NNE,21,4.0,13.0,95,0.00,,,1.23,WeatherCatV1.15B25,2013-06-13 08:56:00,
2013-06-13 05:01:00,63.7,62.2,29.48,NE,56,4.0,15.0,95,0.00,,,1.23,WeatherCatV1.15B25,2013-06-13 09:01:00,
2013-06-13 05:06:00,63.7,62.2,29.48,NE,43,8.0,10.0,95,0.00,,,1.23,WeatherCatV1.15B25,2013-06-13 09:06:00,
2013-06-13 05:11:00,63.8,62.3,29.48,NE,36,8.0,14.0,95,0.00,,,1.23,WeatherCatV1.15B25,2013-06-13 09:11:00,
2013-06-13 05:16:00,63.7,62.2,29.50,NE,46,7.0,12.0,95,0.00,,,1.23,WeatherCatV1.15B25,2013-06-13 09:16:00,
2013-06-13 05:21:00,63.7,62.2,29.52,NNW,327,2.0,10.0,95,0.00,,,1.23,WeatherCatV1.15B25,2013-06-13 09:21:00,
2013-06-13 05:26:00,63.7,62.2,29.53,NE,44,6.0,8.0,95,0.00,,,1.23,WeatherCatV1.15B25,2013-06-13 09:26:00,
2013-06-13 05:31:00,63.7,61.9,29.54,NNE,17,5.0,10.0,94,0.00,,,1.23,WeatherCatV1.15B25,2013-06-13 09:31:00,
2013-06-13 05:36:00,63.8,62.0,29.55,NW,323,2.0,4.0,94,0.00,,,1.23,WeatherCatV1.15B25,2013-06-13 09:36:00,
2013-06-13 05:41:00,63.8,62.0,29.55,NW,313,0.0,1.0,94,0.00,,,1.23,WeatherCatV1.15B25,2013-06-13 09:41:00,
2013-06-13 05:46:00,63.8,62.0,29.56,NNW,328,2.0,3.0,94,0.00,,,1.23,WeatherCatV1.15B25,2013-06-13 09:46:00,
2013-06-13 05:51:00,63.8,62.3,29.56,NW,321,0.0,2.0,95,0.00,,,1.24,WeatherCatV1.15B25,2013-06-13 09:51:00,
2013-06-13 05:56:00,63.7,62.2,29.56,NNW,336,3.0,4.0,95,0.08,,,1.25,WeatherCatV1.15B25,2013-06-13 09:56:00,
2013-06-13 06:01:00,63.7,62.2,29.56,NNW,345,0.0,2.0,95,0.12,,,1.26,WeatherCatV1.15B25,2013-06-13 10:01:00,
2013-06-13 06:06:00,63.7,62.2,29.56,NNW,331,0.0,0.0,95,0.17,,,1.27,WeatherCatV1.15B25,2013-06-13 10:06:00,
2013-06-13 06:11:00,63.8,62.3,29.56,NNW,344,3.0,7.0,95,0.14,,,1.29,WeatherCatV1.15B25,2013-06-13 10:11:00,
2013-06-13 06:16:00,63.7,62.2,29.56,NNE,20,4.0,4.0,95,0.11,,,1.30,WeatherCatV1.15B25,2013-06-13 10:16:00,
2013-06-13 06:21:00,63.5,62.0,29.57,NE,34,4.0,11.0,95,0.11,,,1.30,WeatherCatV1.15B25,2013-06-13 10:21:00,
2013-06-13 06:26:00,63.3,61.5,29.57,NNE,32,12.0,13.0,94,0.07,,,1.31,WeatherCatV1.15B25,2013-06-13 10:26:00,
2013-06-13 06:31:00,63.2,61.4,29.57,NE,38,3.0,9.0,94,0.07,,,1.31,WeatherCatV1.15B25,2013-06-13 10:31:00,
2013-06-13 06:36:00,63.0,60.9,29.58,NNE,24,8.0,9.0,93,0.05,,,1.31,WeatherCatV1.15B25,2013-06-13 10:36:00,
2013-06-13 06:41:00,62.8,60.4,29.58,NE,46,6.0,9.0,92,0.05,,,1.32,WeatherCatV1.15B25,2013-06-13 10:41:00,
2013-06-13 06:46:00,62.7,60.0,29.58,North,355,6.0,10.0,91,0.05,,,1.32,WeatherCatV1.15B25,2013-06-13 10:46:00,
2013-06-13 06:51:00,62.5,60.1,29.59,NNE,26,3.0,4.0,92,0.04,,,1.32,WeatherCatV1.15B25,2013-06-13 10:51:00,
2013-06-13 06:56:00,62.2,59.8,29.59,NNW,334,3.0,7.0,92,0.00,,,1.32,WeatherCatV1.15B25,2013-06-13 10:56:00,
2013-06-13 07:01:00,62.0,59.3,29.59,NNW,337,4.0,6.0,91,0.00,,,1.32,WeatherCatV1.15B25,2013-06-13 11:01:00,
2013-06-13 07:06:00,61.7,58.7,29.59,North,9,3.0,5.0,90,0.00,,,1.32,WeatherCatV1.15B25,2013-06-13 11:06:00,
2013-06-13 07:11:00,61.5,58.8,29.59,NNE,32,6.0,7.0,91,0.00,,,1.32,WeatherCatV1.15B25,2013-06-13 11:11:00,
2013-06-13 07:16:00,61.3,58.6,29.59,NE,44,8.0,10.0,91,0.00,,,1.32,WeatherCatV1.15B25,2013-06-13 11:16:00,
2013-06-13 07:21:00,61.2,58.5,29.59,NNE,31,2.0,8.0,91,0.00,,,1.32,WeatherCatV1.15B25,2013-06-13 11:21:00,
2013-06-13 07:26:00,61.1,58.4,29.59,NNE,26,2.0,6.0,91,0.00,,,1.32,WeatherCatV1.15B25,2013-06-13 11:26:00,
2013-06-13 07:31:00,61.1,58.4,29.59,NNE,32,6.0,9.0,91,0.00,,,1.32,WeatherCatV1.15B25,2013-06-13 11:31:00,
2013-06-13 07:36:00,61.2,58.2,29.60,NE,38,6.0,6.0,90,0.00,,,1.32,WeatherCatV1.15B25,2013-06-13 11:36:00,
2013-06-13 07:41:00,61.2,58.5,29.60,NW,326,1.0,5.0,91,0.00,,,1.32,WeatherCatV1.15B25,2013-06-13 11:41:00,
2013-06-13 07:46:00,61.2,58.5,29.60,NNW,331,0.0,3.0,91,0.00,,,1.32,WeatherCatV1.15B25,2013-06-13 11:46:00,
2013-06-13 07:51:00,61.3,58.6,29.60,NNE,28,1.0,4.0,91,0.00,,,1.32,WeatherCatV1.15B25,2013-06-13 11:51:00,
2013-06-13 07:56:00,61.4,59.1,29.60,NNE,12,1.0,3.0,92,0.00,,,1.32,WeatherCatV1.15B25,2013-06-13 11:56:00,
2013-06-13 08:01:00,61.4,58.7,29.60,NNW,344,1.0,6.0,91,0.00,,,1.32,WeatherCatV1.15B25,2013-06-13 12:01:00,
2013-06-13 08:06:00,61.4,58.4,29.61,NE,35,1.0,7.0,90,0.00,,,1.32,WeatherCatV1.15B25,2013-06-13 12:06:00,
2013-06-13 08:11:00,61.5,58.5,29.61,North,349,2.0,3.0,90,0.00,,,1.32,WeatherCatV1.15B25,2013-06-13 12:11:00,
2013-06-13 08:16:00,61.4,58.4,29.61,NNE,27,3.0,7.0,90,0.00,,,1.32,WeatherCatV1.15B25,2013-06-13 12:16:00,
2013-06-13 08:21:00,61.4,58.4,29.61,NNE,28,5.0,5.0,90,0.00,,,1.32,WeatherCatV1.15B25,2013-06-13 12:21:00,
2013-06-13 08:26:00,61.5,58.5,29.62,NNW,340,4.0,6.0,90,0.00,,,1.32,WeatherCatV1.15B25,2013-06-13 12:26:00,
2013-06-13 08:31:00,61.5,58.5,29.63,NNW,327,1.0,3.0,90,0.00,,,1.32,WeatherCatV1.15B25,2013-06-13 12:31:00,
2013-06-13 08:36:00,61.5,58.5,29.63,NW,315,2.0,3.0,90,0.00,,,1.32,WeatherCatV1.15B25,2013-06-13 12:36:00,
2013-06-13 08:41:00,61.6,58.6,29.63,NNW,346,3.0,4.0,90,0.00,,,1.32,WeatherCatV1.15B25,2013-06-13 12:41:00,
2013-06-13 08:46:00,61.6,58.6,29.63,NNE,26,6.0,8.0,90,0.00,,,1.32,WeatherCatV1.15B25,2013-06-13 12:46:00,
2013-06-13 08:51:00,61.7,58.7,29.63,NNW,329,5.0,6.0,90,0.00,,,1.32,WeatherCatV1.15B25,2013-06-13 12:51:00,
2013-06-13 08:56:00,61.8,58.8,29.63,NNW,338,1.0,4.0,90,0.00,,,1.32,WeatherCatV1.15B25,2013-06-13 12:56:00,
2013-06-13 09:01:00,61.9,58.9,29.64,NNW,346,2.0,5.0,90,0.00,,,1.32,WeatherCatV1.15B25,2013-06-13 13:01:00,
2013-06-13 09:06:00,62.1,59.1,29.64,West,264,7.0,9.0,90,0.00,,,1.32,WeatherCatV1.15B25,2013-06-13 13:06:00,
2013-06-13 09:11:00,62.2,58.9,29.64,West,277,7.0,7.0,89,0.00,,,1.32,WeatherCatV1.15B25,2013-06-13 13:11:00,
2013-06-13 09:16:00,62.5,59.5,29.65,NNW,348,1.0,2.0,90,0.00,,,1.32,WeatherCatV1.15B25,2013-06-13 13:16:00,
2013-06-13 09:21:00,62.8,59.5,29.64,NW,325,3.0,5.0,89,0.00,,,1.32,WeatherCatV1.15B25,2013-06-13 13:21:00,
2013-06-13 09:26:00,62.9,59.3,29.65,NNW,329,3.0,6.0,88,0.00,,,1.32,WeatherCatV1.15B25,2013-06-13 13:26:00,
2013-06-13 09:31:00,63.1,59.5,29.65,NNW,348,2.0,6.0,88,0.00,,,1.32,WeatherCatV1.15B25,2013-06-13 13:31:00,
2013-06-13 09:36:00,63.3,59.7,29.65,North,350,7.0,8.0,88,0.00,,,1.32,WeatherCatV1.15B25,2013-06-13 13:36:00,
2013-06-13 09:41:00,63.8,60.2,29.66,NW,321,4.0,7.0,88,0.00,,,1.32,WeatherCatV1.15B25,2013-06-13 13:41:00,
2013-06-13 09:46:00,64.4,60.8,29.66,NNW,336,6.0,8.0,88,0.00,,,1.32,WeatherCatV1.15B25,2013-06-13 13:46:00,
2013-06-13 09:51:00,65.1,61.1,29.66,NNW,333,5.0,6.0,87,0.00,,,1.32,WeatherCatV1.15B25,2013-06-13 13:51:00,
2013-06-13 09:56:00,65.5,60.5,29.65,North,351,5.0,8.0,84,0.00,,,1.32,WeatherCatV1.15B25,2013-06-13 13:56:00,
2013-06-13 10:01:00,65.9,61.3,29.66,NW,313,2.0,5.0,85,0.00,,,1.32,WeatherCatV1.15B25,2013-06-13 14:01:00,
2013-06-13 10:06:00,66.3,60.6,29.65,NW,311,6.0,9.0,82,0.00,,,1.32,WeatherCatV1.15B25,2013-06-13 14:06:00,
2013-06-13 10:12:00,66.5,59.8,29.65,North,350,5.0,8.0,79,0.00,,,1.32,WeatherCatV1.15B25,2013-06-13 14:12:00,
2013-06-13 10:17:00,66.7,60.3,29.66,North,5,5.0,12.0,80,0.00,,,1.32,WeatherCatV1.15B25,2013-06-13 14:17:00,
2013-06-13 10:22:00,66.8,60.1,29.65,NNW,348,7.0,8.0,79,0.00,,,1.32,WeatherCatV1.15B25,2013-06-13 14:22:00,
2013-06-13 10:27:00,67.1,60.7,29.65,NE,35,3.0,10.0,80,0.00,,,1.32,WeatherCatV1.15B25,2013-06-13 14:27:00,
2013-06-13 10:32:00,67.8,61.4,29.65,NNW,346,3.0,7.0,80,0.00,,,1.32,WeatherCatV1.15B25,2013-06-13 14:32:00,
2013-06-13 10:37:00,68.1,61.0,29.65,ENE,57,5.0,8.0,78,0.00,,,1.32,WeatherCatV1.15B25,2013-06-13 14:37:00,
2013-06-13 10:42:00,68.6,61.5,29.65,NW,320,4.0,6.0,78,0.00,,,1.32,WeatherCatV1.15B25,2013-06-13 14:42:00,
2013-06-13 10:47:00,69.0,60.4,29.65,North,355,4.0,6.0,74,0.00,,,1.32,WeatherCatV1.15B25,2013-06-13 14:47:00,
2013-06-13 10:52:00,69.1,59.3,29.66,NNE,13,4.0,8.0,71,0.00,,,1.32,WeatherCatV1.15B25,2013-06-13 14:52:00,
2013-06-13 10:57:00,69.2,58.6,29.66,NNW,329,2.0,11.0,69,0.00,,,1.32,WeatherCatV1.15B25,2013-06-13 14:57:00,
2013-06-13 11:02:00,69.5,58.9,29.66,NNW,331,3.0,9.0,69,0.00,,,1.32,WeatherCatV1.15B25,2013-06-13 15:02:00,
2013-06-13 11:07:00,69.9,59.3,29.66,North,9,3.0,9.0,69,0.00,,,1.32,WeatherCatV1.15B25,2013-06-13 15:07:00,
2013-06-13 11:12:00,70.4,59.7,29.66,NNW,336,4.0,5.0,69,0.00,,,1.32,WeatherCatV1.15B25,2013-06-13 15:12:00,
2013-06-13 11:17:00,70.7,57.0,29.66,NNW,331,7.0,13.0,62,0.00,,,1.32,WeatherCatV1.15B25,2013-06-13 15:17:00,
2013-06-13 11:22:00,70.7,57.9,29.67,North,11,5.0,7.0,64,0.00,,,1.32,WeatherCatV1.15B25,2013-06-13 15:22:00,
2013-06-13 11:27:00,70.8,57.6,29.67,NNE,19,6.0,10.0,63,0.00,,,1.32,WeatherCatV1.15B25,2013-06-13 15:27:00,
2013-06-13 11:32:00,71.0,58.2,29.67,WNW,290,7.0,9.0,64,0.00,,,1.32,WeatherCatV1.15B25,2013-06-13 15:32:00,
2013-06-13 11:37:00,71.4,58.6,29.67,North,355,8.0,8.0,64,0.00,,,1.32,WeatherCatV1.15B25,2013-06-13 15:37:00,
2013-06-13 11:42:00,71.6,58.3,29.68,North,355,6.0,10.0,63,0.00,,,1.32,WeatherCatV1.15B25,2013-06-13 15:42:00,
2013-06-13 11:47:00,72.1,57.9,29.68,WNW,284,5.0,9.0,61,0.00,,,1.32,WeatherCatV1.15B25,2013-06-13 15:47:00,
2013-06-13 11:52:00,72.2,57.1,29.68,North,351,7.0,12.0,59,0.00,,,1.32,WeatherCatV1.15B25,2013-06-13 15:52:00,
2013-06-13 11:57:00,72.2,58.0,29.68,NNW,333,6.0,7.0,61,0.00,,,1.32,WeatherCatV1.15B25,2013-06-13 15:57:00,
2013-06-13 12:02:00,72.8,58.6,29.69,NW,306,7.0,10.0,61,0.00,,,1.33,WeatherCatV1.15B25,2013-06-13 16:02:00,
2013-06-13 12:07:00,72.7,58.0,29.68,NNW,334,7.0,9.0,60,0.00,,,1.33,WeatherCatV1.15B25,2013-06-13 16:07:00,
2013-06-13 12:12:00,72.6,57.9,29.68,WNW,294,7.0,11.0,60,0.00,,,1.33,WeatherCatV1.15B25,2013-06-13 16:12:00,
2013-06-13 12:17:00,72.7,57.5,29.69,NNW,331,7.0,12.0,59,0.00,,,1.33,WeatherCatV1.15B25,2013-06-13 16:17:00,
2013-06-13 12:22:00,72.7,58.0,29.69,NNW,343,8.0,8.0,60,0.00,,,1.33,WeatherCatV1.15B25,2013-06-13 16:22:00,
2013-06-13 12:27:00,73.0,58.7,29.69,NW,311,2.0,6.0,61,0.00,,,1.33,WeatherCatV1.15B25,2013-06-13 16:27:00,
2013-06-13 12:32:00,73.5,56.8,29.69,North,0,5.0,10.0,56,0.00,,,1.33,WeatherCatV1.15B25,2013-06-13 16:32:00,
2013-06-13 12:37:00,73.7,59.4,29.69,North,350,3.0,7.0,61,0.00,,,1.33,WeatherCatV1.15B25,2013-06-13 16:37:00,
2013-06-13 12:42:00,73.9,59.1,29.69,NNE,17,5.0,8.0,60,0.00,,,1.33,WeatherCatV1.15B25,2013-06-13 16:42:00,
2013-06-13 12:47:00,73.8,57.6,29.69,North,351,5.0,14.0,57,0.00,,,1.33,WeatherCatV1.15B25,2013-06-13 16:47:00,
2013-06-13 12:52:00,73.8,57.6,29.70,NW,319,16.0,16.0,57,0.00,,,1.33,WeatherCatV1.15B25,2013-06-13 16:52:00,
2013-06-13 12:57:00,73.6,55.9,29.69,North,0,5.0,10.0,54,0.00,,,1.33,WeatherCatV1.15B25,2013-06-13 16:57:00,
2013-06-13 13:02:00,74.2,55.4,29.70,North,5,7.0,8.0,52,0.00,,,1.33,WeatherCatV1.15B25,2013-06-13 17:02:00,
2013-06-13 13:07:00,74.3,55.0,29.70,NNE,13,5.0,10.0,51,0.00,,,1.33,WeatherCatV1.15B25,2013-06-13 17:07:00,
2013-06-13 13:12:00,74.3,57.1,29.70,NNE,27,9.0,15.0,55,0.00,,,1.33,WeatherCatV1.15B25,2013-06-13 17:12:00,
2013-06-13 13:17:00,74.6,56.8,29.70,NW,312,6.0,6.0,54,0.00,,,1.33,WeatherCatV1.15B25,2013-06-13 17:17:00,
2013-06-13 13:22:00,74.7,57.9,29.70,NE,39,4.0,5.0,56,0.00,,,1.33,WeatherCatV1.15B25,2013-06-13 17:22:00,
2013-06-13 13:27:00,74.6,56.8,29.70,NW,309,6.0,9.0,54,0.00,,,1.33,WeatherCatV1.15B25,2013-06-13 17:27:00,
2013-06-13 13:32:00,73.8,56.6,29.70,NNW,329,4.0,11.0,55,0.00,,,1.33,WeatherCatV1.15B25,2013-06-13 17:32:00,
2013-06-13 13:37:00,73.1,55.4,29.71,North,350,6.0,9.0,54,0.00,,,1.33,WeatherCatV1.15B25,2013-06-13 17:37:00,
2013-06-13 13:42:00,73.8,56.6,29.70,North,5,5.0,10.0,55,0.00,,,1.33,WeatherCatV1.15B25,2013-06-13 17:42:00,
2013-06-13 13:47:00,74.5,59.2,29.71,North,355,7.0,7.0,59,0.00,,,1.33,WeatherCatV1.15B25,2013-06-13 17:47:00,
2013-06-13 13:52:00,74.6,56.3,29.71,North,350,2.0,7.0,53,0.00,,,1.33,WeatherCatV1.15B25,2013-06-13 17:52:00,
2013-06-13 13:57:00,74.7,56.9,29.71,NNE,30,4.0,15.0,54,0.00,,,1.33,WeatherCatV1.15B25,2013-06-13 17:57:00,
2013-06-13 14:02:00,74.6,56.3,29.71,NW,309,5.0,12.0,53,0.00,,,1.33,WeatherCatV1.15B25,2013-06-13 18:02:00,
2013-06-13 14:07:00,74.5,55.7,29.71,NNW,340,4.0,11.0,52,0.00,,,1.33,WeatherCatV1.15B25,2013-06-13 18:07:00,
2013-06-13 14:12:00,74.6,56.3,29.71,WNW,287,7.0,12.0,53,0.00,,,1.33,WeatherCatV1.15B25,2013-06-13 18:12:00,
2013-06-13 14:17:00,74.5,58.2,29.71,NW,309,5.0,8.0,57,0.00,,,1.33,WeatherCatV1.15B25,2013-06-13 18:17:00,
2013-06-13 14:22:00,74.8,56.5,29.71,NNW,346,8.0,9.0,53,0.00,,,1.33,WeatherCatV1.15B25,2013-06-13 18:22:00,
2013-06-13 14:27:00,74.9,55.0,29.72,WNW,286,12.0,12.0,50,0.00,,,1.33,WeatherCatV1.15B25,2013-06-13 18:27:00,
2013-06-13 14:32:00,74.9,55.0,29.72,North,351,5.0,12.0,50,0.00,,,1.33,WeatherCatV1.15B25,2013-06-13 18:32:00,
2013-06-13 14:37:00,75.1,57.3,29.72,NW,309,4.0,4.0,54,0.00,,,1.33,WeatherCatV1.15B25,2013-06-13 18:37:00,
2013-06-13 14:42:00,75.3,55.4,29.73,NW,323,10.0,12.0,50,0.00,,,1.33,WeatherCatV1.15B25,2013-06-13 18:42:00,
2013-06-13 14:47:00,75.1,54.6,29.72,NNW,348,9.0,14.0,49,0.00,,,1.33,WeatherCatV1.15B25,2013-06-13 18:47:00,
2013-06-13 14:52:00,75.1,56.3,29.73,NW,325,4.0,12.0,52,0.00,,,1.33,WeatherCatV1.15B25,2013-06-13 18:52:00,
2013-06-13 14:57:00,75.3,56.4,29.73,NW,309,6.0,9.0,52,0.00,,,1.33,WeatherCatV1.15B25,2013-06-13 18:57:00,
2013-06-13 15:02:00,75.6,57.2,29.72,NNE,15,11.0,16.0,53,0.00,,,1.33,WeatherCatV1.15B25,2013-06-13 19:02:00,
2013-06-13 15:07:00,75.8,57.4,29.73,North,351,4.0,9.0,53,0.00,,,1.33,WeatherCatV1.15B25,2013-06-13 19:07:00,
2013-06-13 15:12:00,75.8,56.4,29.73,WNW,300,3.0,7.0,51,0.00,,,1.33,WeatherCatV1.15B25,2013-06-13 19:12:00,
2013-06-13 15:17:00,75.6,57.2,29.73,NNW,335,3.0,7.0,53,0.00,,,1.33,WeatherCatV1.15B25,2013-06-13 19:17:00,
2013-06-13 15:22:00,76.0,57.1,29.73,WNW,300,4.0,13.0,52,0.00,,,1.33,WeatherCatV1.15B25,2013-06-13 19:22:00,
2013-06-13 15:27:00,76.3,57.4,29.73,NNW,341,8.0,8.0,52,0.00,,,1.33,WeatherCatV1.15B25,2013-06-13 19:27:00,
2013-06-13 15:32:00,76.3,56.8,29.73,North,355,6.0,9.0,51,0.00,,,1.33,WeatherCatV1.15B25,2013-06-13 19:32:00,
2013-06-13 15:37:00,75.8,56.9,29.73,North,355,5.0,10.0,52,0.00,,,1.33,WeatherCatV1.15B25,2013-06-13 19:37:00,
2013-06-13 15:42:00,76.1,57.2,29.73,NNE,31,6.0,8.0,52,0.00,,,1.33,WeatherCatV1.15B25,2013-06-13 19:42:00,
2013-06-13 15:47:00,76.3,57.4,29.73,NW,326,4.0,9.0,52,0.00,,,1.33,WeatherCatV1.15B25,2013-06-13 19:47:00,
2013-06-13 15:52:00,76.1,57.7,29.74,NW,309,6.0,6.0,53,0.00,,,1.33,WeatherCatV1.15B25,2013-06-13 19:52:00,
2013-06-13 15:57:00,76.4,56.9,29.73,NNE,20,4.0,10.0,51,0.00,,,1.33,WeatherCatV1.15B25,2013-06-13 19:57:00,
2013-06-13 16:02:00,76.9,59.0,29.74,NNW,344,4.0,8.0,54,0.00,,,1.33,WeatherCatV1.15B25,2013-06-13 20:02:00,
2013-06-13 16:07:00,76.8,57.3,29.74,NNW,327,7.0,9.0,51,0.00,,,1.33,WeatherCatV1.15B25,2013-06-13 20:07:00,
2013-06-13 16:12:00,76.3,57.4,29.74,North,5,4.0,11.0,52,0.00,,,1.33,WeatherCatV1.15B25,2013-06-13 20:12:00,
2013-06-13 16:17:00,76.7,56.6,29.74,ENE,58,7.0,13.0,50,0.00,,,1.33,WeatherCatV1.15B25,2013-06-13 20:17:00,
2013-06-13 16:22:00,76.9,56.8,29.74,NNW,327,3.0,7.0,50,0.00,,,1.33,WeatherCatV1.15B25,2013-06-13 20:22:00,
2013-06-13 16:27:00,77.1,57.6,29.74,NNW,338,3.0,9.0,51,0.00,,,1.33,WeatherCatV1.15B25,2013-06-13 20:27:00,
2013-06-13 16:32:00,77.4,56.7,29.74,NNE,17,7.0,11.0,49,0.00,,,1.33,WeatherCatV1.15B25,2013-06-13 20:32:00,
2013-06-13 16:37:00,77.3,58.3,29.74,NNW,348,3.0,10.0,52,0.00,,,1.33,WeatherCatV1.15B25,2013-06-13 20:37:00,
2013-06-13 16:42:00,77.4,57.8,29.74,North,349,5.0,8.0,51,0.00,,,1.33,WeatherCatV1.15B25,2013-06-13 20:42:00,
2013-06-13 16:47:00,76.7,57.7,29.74,NNE,13,5.0,7.0,52,0.00,,,1.33,WeatherCatV1.15B25,2013-06-13 20:47:00,
2013-06-13 16:52:00,75.8,57.4,29.74,North,355,4.0,4.0,53,0.00,,,1.33,WeatherCatV1.15B25,2013-06-13 20:52:00,
2013-06-13 16:57:00,75.2,57.9,29.74,North,351,2.0,7.0,55,0.00,,,1.33,WeatherCatV1.15B25,2013-06-13 20:57:00,
2013-06-13 17:02:00,75.2,57.4,29.74,NNW,336,2.0,6.0,54,0.00,,,1.33,WeatherCatV1.15B25,2013-06-13 21:02:00,
2013-06-13 17:07:00,75.1,56.8,29.74,NNE,23,9.0,9.0,53,0.00,,,1.33,WeatherCatV1.15B25,2013-06-13 21:07:00,
2013-06-13 17:12:00,74.7,56.9,29.75,NE,42,4.0,6.0,54,0.00,,,1.33,WeatherCatV1.15B25,2013-06-13 21:12:00,
2013-06-13 17:17:00,74.0,58.7,29.75,North,355,5.0,6.0,59,0.00,,,1.33,WeatherCatV1.15B25,2013-06-13 21:17:00,
2013-06-13 17:22:00,73.2,58.5,29.75,North,5,3.0,5.0,60,0.00,,,1.33,WeatherCatV1.15B25,2013-06-13 21:22:00,
2013-06-13 17:27:00,72.7,57.5,29.75,NNE,24,5.0,8.0,59,0.00,,,1.33,WeatherCatV1.15B25,2013-06-13 21:27:00,
2013-06-13 17:32:00,72.4,58.2,29.75,NE,40,2.0,5.0,61,0.00,,,1.33,WeatherCatV1.15B25,2013-06-13 21:32:00,
2013-06-13 17:37:00,72.2,58.4,29.76,NNW,344,2.0,5.0,62,0.00,,,1.33,WeatherCatV1.15B25,2013-06-13 21:37:00,
2013-06-13 17:42:00,71.9,57.7,29.76,WNW,298,3.0,6.0,61,0.00,,,1.33,WeatherCatV1.15B25,2013-06-13 21:42:00,
2013-06-13 17:47:00,71.5,58.7,29.76,NW,309,5.0,7.0,64,0.00,,,1.33,WeatherCatV1.15B25,2013-06-13 21:47:00,
2013-06-13 17:52:00,70.7,58.8,29.76,NW,319,1.0,3.0,66,0.00,,,1.33,WeatherCatV1.15B25,2013-06-13 21:52:00,
2013-06-13 17:57:00,70.5,59.0,29.76,NNW,332,2.0,5.0,67,0.00,,,1.33,WeatherCatV1.15B25,2013-06-13 21:57:00,
2013-06-13 18:02:00,70.4,58.9,29.77,NW,321,4.0,4.0,67,0.00,,,1.33,WeatherCatV1.15B25,2013-06-13 22:02:00,
2013-06-13 18:07:00,70.4,58.5,29.77,NNE,13,1.0,5.0,66,0.00,,,1.33,WeatherCatV1.15B25,2013-06-13 22:07:00,
2013-06-13 18:12:00,70.4,58.5,29.77,NW,310,6.0,6.0,66,0.00,,,1.33,WeatherCatV1.15B25,2013-06-13 22:12:00,
2013-06-13 18:17:00,70.1,59.0,29.77,NNW,334,5.0,6.0,68,0.00,,,1.33,WeatherCatV1.15B25,2013-06-13 22:17:00,
2013-06-13 18:22:00,69.7,59.1,29.77,West,272,5.0,9.0,69,0.00,,,1.33,WeatherCatV1.15B25,2013-06-13 22:22:00,
2013-06-13 18:27:00,69.3,59.1,29.77,NW,315,3.0,3.0,70,0.00,,,1.33,WeatherCatV1.15B25,2013-06-13 22:27:00,
2013-06-13 18:32:00,68.9,58.7,29.77,NNW,333,1.0,4.0,70,0.00,,,1.33,WeatherCatV1.15B25,2013-06-13 22:32:00,
2013-06-13 18:37:00,68.6,58.8,29.77,North,355,4.0,5.0,71,0.00,,,1.33,WeatherCatV1.15B25,2013-06-13 22:37:00,
2013-06-13 18:42:00,68.4,58.6,29.77,North,349,2.0,6.0,71,0.00,,,1.33,WeatherCatV1.15B25,2013-06-13 22:42:00,
2013-06-13 18:47:00,68.3,58.9,29.78,NNW,346,2.0,5.0,72,0.00,,,1.33,WeatherCatV1.15B25,2013-06-13 22:47:00,
2013-06-13 18:52:00,68.2,58.4,29.78,NW,325,1.0,4.0,71,0.00,,,1.33,WeatherCatV1.15B25,2013-06-13 22:52:00,
2013-06-13 18:57:00,68.2,58.8,29.78,NNW,347,4.0,4.0,72,0.00,,,1.33,WeatherCatV1.15B25,2013-06-13 22:57:00,
2013-06-13 19:02:00,68.1,59.1,29.78,North,5,0.0,1.0,73,0.00,,,1.33,WeatherCatV1.15B25,2013-06-13 23:02:00,
2013-06-13 19:07:00,68.1,58.3,29.78,NNW,332,3.0,4.0,71,0.00,,,1.33,WeatherCatV1.15B25,2013-06-13 23:07:00,
2013-06-13 19:12:00,68.3,58.5,29.78,NW,315,1.0,3.0,71,0.00,,,1.33,WeatherCatV1.15B25,2013-06-13 23:12:00,
2013-06-13 19:17:00,68.6,58.8,29.78,NNW,338,2.0,4.0,71,0.00,,,1.33,WeatherCatV1.15B25,2013-06-13 23:17:00,
2013-06-13 19:22:00,69.4,59.6,29.78,NW,313,4.0,5.0,71,0.00,,,1.33,WeatherCatV1.15B25,2013-06-13 23:22:00,
2013-06-13 19:27:00,69.8,59.2,29.78,NW,306,2.0,6.0,69,0.00,,,1.33,WeatherCatV1.15B25,2013-06-13 23:27:00,
2013-06-13 19:32:00,70.1,59.8,29.78,WNW,301,3.0,4.0,70,0.00,,,1.33,WeatherCatV1.15B25,2013-06-13 23:32:00,
2013-06-13 19:37:00,70.3,59.6,29.78,NNW,340,0.0,3.0,69,0.00,,,1.33,WeatherCatV1.15B25,2013-06-13 23:37:00,
2013-06-13 19:42:00,70.2,59.5,29.78,NW,314,2.0,2.0,69,0.00,,,1.33,WeatherCatV1.15B25,2013-06-13 23:42:00,
2013-06-13 19:47:00,69.7,59.1,29.78,NNW,338,2.0,3.0,69,0.00,,,1.33,WeatherCatV1.15B25,2013-06-13 23:47:00,
2013-06-13 19:52:00,69.3,59.5,29.78,NW,324,0.0,2.0,71,0.00,,,1.33,WeatherCatV1.15B25,2013-06-13 23:52:00,
2013-06-13 19:57:00,68.9,59.5,29.78,NW,324,0.0,1.0,72,0.00,,,1.33,WeatherCatV1.15B25,2013-06-13 23:57:00,
2013-06-13 20:02:00,68.7,59.7,29.79,NW,324,0.0,0.0,73,0.00,,,1.33,WeatherCatV1.15B25,2013-06-14 00:02:00,
2013-06-13 20:07:00,68.5,59.9,29.79,NW,324,0.0,1.0,74,0.00,,,1.33,WeatherCatV1.15B25,2013-06-14 00:07:00,
2013-06-13 20:12:00,68.3,60.1,29.79,WNW,300,1.0,1.0,75,0.00,,,1.33,WeatherCatV1.15B25,2013-06-14 00:12:00,
2013-06-13 20:17:00,68.0,59.8,29.79,WNW,285,4.0,4.0,75,0.00,,,1.33,WeatherCatV1.15B25,2013-06-14 00:17:00,
2013-06-13 20:22:00,67.8,59.9,29.79,NW,315,4.0,5.0,76,0.00,,,1.33,WeatherCatV1.15B25,2013-06-14 00:22:00,
2013-06-13 20:27:00,67.6,59.8,29.79,NW,318,2.0,4.0,76,0.00,,,1.33,WeatherCatV1.15B25,2013-06-14 00:27:00,
2013-06-13 20:32:00,67.6,59.8,29.79,WNW,284,4.0,8.0,76,0.00,,,1.34,WeatherCatV1.15B25,2013-06-14 00:32:00,
2013-06-13 20:37:00,67.5,59.7,29.80,NNW,328,4.0,5.0,76,0.00,,,1.34,WeatherCatV1.15B25,2013-06-14 00:37:00,
2013-06-13 20:42:00,67.5,60.0,29.80,NW,314,3.0,8.0,77,0.00,,,1.34,WeatherCatV1.15B25,2013-06-14 00:42:00,
2013-06-13 20:47:00,67.3,59.8,29.80,NW,323,3.0,5.0,77,0.00,,,1.34,WeatherCatV1.15B25,2013-06-14 00:47:00,
2013-06-13 20:52:00,67.2,60.1,29.80,NW,322,0.0,3.0,78,0.00,,,1.34,WeatherCatV1.15B25,2013-06-14 00:52:00,
2013-06-13 20:57:00,67.1,60.4,29.80,NNW,332,2.0,3.0,79,0.00,,,1.34,WeatherCatV1.15B25,2013-06-14 00:57:00,
2013-06-13 21:02:00,66.9,60.2,29.80,NNW,347,3.0,4.0,79,0.00,,,1.34,WeatherCatV1.15B25,2013-06-14 01:02:00,
2013-06-13 21:07:00,66.8,60.4,29.80,NNW,342,0.0,2.0,80,0.00,,,1.34,WeatherCatV1.15B25,2013-06-14 01:07:00,
2013-06-13 21:12:00,66.6,60.2,29.80,NNW,342,0.0,3.0,80,0.00,,,1.34,WeatherCatV1.15B25,2013-06-14 01:12:00,
2013-06-13 21:17:00,66.4,60.0,29.80,North,355,1.0,4.0,80,0.00,,,1.34,WeatherCatV1.15B25,2013-06-14 01:17:00,
2013-06-13 21:22:00,66.1,59.7,29.81,NNW,348,0.0,2.0,80,0.00,,,1.34,WeatherCatV1.15B25,2013-06-14 01:22:00,
2013-06-13 21:27:00,65.8,59.8,29.81,NNE,15,0.0,3.0,81,0.00,,,1.34,WeatherCatV1.15B25,2013-06-14 01:27:00,
2013-06-13 21:32:00,65.5,59.5,29.81,NNE,27,0.0,2.0,81,0.00,,,1.34,WeatherCatV1.15B25,2013-06-14 01:32:00,
2013-06-13 21:37:00,65.3,59.3,29.81,NNE,27,1.0,1.0,81,0.00,,,1.34,WeatherCatV1.15B25,2013-06-14 01:37:00,
2013-06-13 21:42:00,65.0,59.4,29.82,NNE,30,0.0,0.0,82,0.00,,,1.34,WeatherCatV1.15B25,2013-06-14 01:42:00,
2013-06-13 21:47:00,64.7,59.1,29.82,NNE,30,0.0,1.0,82,0.00,,,1.34,WeatherCatV1.15B25,2013-06-14 01:47:00,
2013-06-13 21:52:00,64.4,58.8,29.82,NNE,30,0.0,0.0,82,0.00,,,1.34,WeatherCatV1.15B25,2013-06-14 01:52:00,
2013-06-13 21:57:00,64.1,58.5,29.82,North,11,0.0,1.0,82,0.00,,,1.34,WeatherCatV1.15B25,2013-06-14 01:57:00,
2013-06-13 22:02:00,64.0,58.4,29.82,North,11,0.0,0.0,82,0.00,,,1.34,WeatherCatV1.15B25,2013-06-14 02:02:00,
2013-06-13 22:07:00,63.8,58.2,29.82,North,11,0.0,1.0,82,0.00,,,1.34,WeatherCatV1.15B25,2013-06-14 02:07:00,
2013-06-13 22:12:00,63.7,58.1,29.82,North,11,1.0,2.0,82,0.00,,,1.34,WeatherCatV1.15B25,2013-06-14 02:12:00,
2013-06-13 22:17:00,63.5,57.9,29.82,North,11,0.0,0.0,82,0.00,,,1.34,WeatherCatV1.15B25,2013-06-14 02:17:00,
2013-06-13 22:22:00,63.3,57.7,29.83,North,11,0.0,0.0,82,0.00,,,1.34,WeatherCatV1.15B25,2013-06-14 02:22:00,
2013-06-13 22:27:00,63.1,57.8,29.83,North,11,0.0,1.0,83,0.00,,,1.34,WeatherCatV1.15B25,2013-06-14 02:27:00,
2013-06-13 22:32:00,63.0,58.1,29.83,NNW,343,2.0,2.0,84,0.00,,,1.34,WeatherCatV1.15B25,2013-06-14 02:32:00,
2013-06-13 22:37:00,62.8,57.9,29.83,NW,319,0.0,1.0,84,0.00,,,1.34,WeatherCatV1.15B25,2013-06-14 02:37:00,
2013-06-13 22:42:00,62.7,58.1,29.84,NW,319,0.0,1.0,85,0.00,,,1.34,WeatherCatV1.15B25,2013-06-14 02:42:00,
2013-06-13 22:47:00,62.5,57.9,29.84,NW,319,0.0,1.0,85,0.00,,,1.34,WeatherCatV1.15B25,2013-06-14 02:47:00,
2013-06-13 22:52:00,62.3,57.7,29.84,NW,319,0.0,0.0,85,0.00,,,1.34,WeatherCatV1.15B25,2013-06-14 02:52:00,
2013-06-13 22:57:00,62.1,57.9,29.84,NW,319,0.0,0.0,86,0.00,,,1.34,WeatherCatV1.15B25,2013-06-14 02:57:00,
2013-06-13 23:02:00,61.9,57.7,29.84,NW,319,0.0,0.0,86,0.00,,,1.34,WeatherCatV1.15B25,2013-06-14 03:02:00,
2013-06-13 23:07:00,61.7,57.8,29.85,NW,319,0.0,0.0,87,0.00,,,1.34,WeatherCatV1.15B25,2013-06-14 03:07:00,
2013-06-13 23:12:00,61.6,58.0,29.85,NW,319,0.0,0.0,88,0.00,,,1.34,WeatherCatV1.15B25,2013-06-14 03:12:00,
2013-06-13 23:17:00,61.6,58.0,29.85,NW,319,0.0,0.0,88,0.00,,,1.34,WeatherCatV1.15B25,2013-06-14 03:17:00,
2013-06-13 23:22:00,61.7,58.1,29.85,NW,319,0.0,0.0,88,0.00,,,1.34,WeatherCatV1.15B25,2013-06-14 03:22:00,
2013-06-13 23:27:00,61.8,58.5,29.85,NW,319,0.0,0.0,89,0.00,,,1.34,WeatherCatV1.15B25,2013-06-14 03:27:00,
2013-06-13 23:32:00,61.9,58.6,29.85,NNW,330,0.0,3.0,89,0.00,,,1.34,WeatherCatV1.15B25,2013-06-14 03:32:00,
2013-06-13 23:37:00,62.1,58.8,29.85,NNW,338,0.0,0.0,89,0.00,,,1.34,WeatherCatV1.15B25,2013-06-14 03:37:00,
2013-06-13 23:42:00,62.3,59.0,29.85,NNW,345,1.0,4.0,89,0.00,,,1.34,WeatherCatV1.15B25,2013-06-14 03:42:00,
2013-06-13 23:47:00,62.6,59.0,29.86,NNE,30,1.0,3.0,88,0.00,,,1.34,WeatherCatV1.15B25,2013-06-14 03:47:00,
2013-06-13 23:52:00,62.8,59.2,29.86,NE,38,2.0,4.0,88,0.00,,,1.34,WeatherCatV1.15B25,2013-06-14 03:52:00,
2013-06-13 23:57:00,63.0,59.1,29.86,NE,34,3.0,4.0,87,0.00,,,1.34,WeatherCatV1.15B25,2013-06-14 03:57:00,